createdAt,value
2019-05-09T00:03:38.245Z,85.47
2019-05-09T00:07:43.908Z,85.85
2019-05-09T00:11:48.885Z,85.67
2019-05-09T00:15:54.282Z,85.37
2019-05-09T00:20:03.673Z,85.50
2019-05-09T00:24:08.502Z,85.49
2019-05-09T00:28:13.725Z,84.52
2019-05-09T00:32:28.994Z,84.46
2019-05-09T00:36:33.882Z,84.42
2019-05-09T00:40:52.355Z,84.60
2019-05-09T00:44:53.335Z,84.78
2019-05-09T00:48:59.903Z,84.95
2019-05-09T00:53:04.778Z,85.25
2019-05-09T00:57:13.631Z,85.83
2019-05-09T01:01:17.888Z,86.34
2019-05-09T01:05:23.942Z,86.73
2019-05-09T01:09:29.010Z,87.28
2019-05-09T01:13:34.329Z,87.10
2019-05-09T01:17:39.263Z,87.38
2019-05-09T01:21:44.163Z,87.67
2019-05-09T01:25:49.033Z,88.04
2019-05-09T01:29:53.919Z,88.38
2019-05-09T01:34:00.448Z,88.62
2019-05-09T01:38:05.407Z,89.06
2019-05-09T01:42:10.293Z,89.11
2019-05-09T01:46:15.177Z,89.58
2019-05-09T01:50:20.061Z,89.96
2019-05-09T01:54:26.396Z,89.80
2019-05-09T01:58:34.188Z,89.78
2019-05-09T02:02:40.460Z,89.64
2019-05-09T02:06:45.421Z,89.00
2019-05-09T02:10:50.548Z,88.81
2019-05-09T02:14:59.733Z,88.25
2019-05-09T02:19:06.259Z,87.98
2019-05-09T02:23:11.147Z,87.61
2019-05-09T02:27:16.027Z,87.47
2019-05-09T02:31:20.913Z,87.21
2019-05-09T02:35:31.472Z,87.29
2019-05-09T02:39:32.386Z,87.01
2019-05-09T02:43:38.972Z,87.72
2019-05-09T02:47:44.030Z,88.13
2019-05-09T02:51:49.021Z,88.57
2019-05-09T02:55:53.881Z,88.89
2019-05-09T03:00:08.715Z,89.70
2019-05-09T03:04:12.745Z,90.83
2019-05-09T03:08:19.233Z,91.08
2019-05-09T03:12:34.436Z,91.54
2019-05-09T03:16:30.797Z,91.51
2019-05-09T03:20:40.277Z,91.64
2019-05-09T03:24:48.334Z,91.85
2019-05-09T03:28:53.384Z,92.26
2019-05-09T03:32:59.717Z,92.39
2019-05-09T03:37:04.738Z,92.67
2019-05-09T03:41:09.629Z,93.07
2019-05-09T03:45:18.098Z,93.32
2019-05-09T03:49:24.518Z,93.53
2019-05-09T03:53:29.406Z,93.92
2019-05-09T03:57:37.357Z,94.41
2019-05-09T04:01:42.270Z,94.60
2019-05-09T04:05:58.303Z,94.76
2019-05-09T04:09:53.725Z,94.35
2019-05-09T04:14:00.250Z,93.59
2019-05-09T04:18:05.134Z,92.99
2019-05-09T04:22:10.018Z,92.70
2019-05-09T04:26:17.609Z,91.93
2019-05-09T04:30:22.711Z,91.68
2019-05-09T04:34:27.695Z,91.28
2019-05-09T04:38:32.561Z,90.80
2019-05-09T04:42:42.791Z,90.17
2019-05-09T04:46:44.037Z,89.64
2019-05-09T04:50:48.910Z,89.75
2019-05-09T04:54:54.066Z,89.91
2019-05-09T04:58:58.956Z,90.08
2019-05-09T05:03:03.852Z,89.29
2019-05-09T05:07:09.321Z,87.90
2019-05-09T05:11:14.208Z,88.59
2019-05-09T05:15:20.539Z,84.01
2019-05-09T05:19:28.566Z,81.58
2019-05-09T05:23:49.994Z,80.73
2019-05-09T05:27:54.883Z,81.01
2019-05-09T05:32:02.382Z,80.75
2019-05-09T05:36:15.142Z,80.57
2019-05-09T05:40:20.040Z,81.18
2019-05-09T05:44:24.932Z,82.35
2019-05-09T05:48:31.473Z,83.00
2019-05-09T05:52:37.554Z,83.46
2019-05-09T05:56:42.554Z,83.79
2019-05-09T06:00:48.132Z,83.18
2019-05-09T06:04:53.023Z,84.71
2019-05-09T06:08:58.122Z,82.96
2019-05-09T06:13:03.078Z,82.55
2019-05-09T06:17:09.057Z,82.89
2019-05-09T06:21:13.959Z,83.04
2019-05-09T06:25:21.059Z,83.18
2019-05-09T06:29:28.677Z,83.18
2019-05-09T06:33:32.793Z,82.54
2019-05-09T06:37:38.761Z,81.76
2019-05-09T06:41:43.665Z,81.87
2019-05-09T06:46:02.400Z,81.95
2019-05-09T06:50:11.633Z,81.86
2019-05-09T06:54:17.430Z,82.45
2019-05-09T06:58:32.711Z,82.06
2019-05-09T07:02:39.253Z,80.39
2019-05-09T07:06:48.111Z,79.44
2019-05-09T07:10:52.395Z,78.61
2019-05-09T07:14:58.418Z,76.80
2019-05-09T07:19:03.258Z,75.08
2019-05-09T07:23:09.079Z,75.79
2019-05-09T07:27:14.121Z,76.05
2019-05-09T07:31:24.167Z,76.48
2019-05-09T07:35:29.060Z,76.31
2019-05-09T07:39:33.943Z,75.64
2019-05-09T07:43:38.843Z,73.09
2019-05-09T07:47:43.739Z,73.84
2019-05-09T07:51:48.641Z,74.83
2019-05-09T07:55:53.533Z,76.50
2019-05-09T07:59:58.601Z,77.91
2019-05-09T08:04:03.558Z,79.31
2019-05-09T08:08:11.501Z,79.77
2019-05-09T08:12:17.939Z,79.12
2019-05-09T08:16:22.979Z,78.33
2019-05-09T08:20:28.062Z,77.17
2019-05-09T08:24:32.944Z,76.49
2019-05-09T08:28:38.887Z,74.32
2019-05-09T08:32:45.200Z,72.17
2019-05-09T08:36:50.104Z,70.72
2019-05-09T08:41:08.998Z,71.13
2019-05-09T08:45:27.392Z,72.38
2019-05-09T08:49:24.720Z,71.77
2019-05-09T08:53:29.611Z,70.34
2019-05-09T08:57:34.506Z,70.20
2019-05-09T09:02:04.694Z,70.89
2019-05-09T09:05:48.388Z,70.41
2019-05-09T09:09:52.642Z,71.36
2019-05-09T09:13:57.878Z,70.27
2019-05-09T09:18:02.873Z,71.67
2019-05-09T09:22:08.816Z,73.27
2019-05-09T09:26:14.100Z,74.29
2019-05-09T09:30:24.764Z,76.69
2019-05-09T09:34:27.748Z,76.29
2019-05-09T09:38:32.628Z,77.26
2019-05-09T09:42:39.615Z,79.19
2019-05-09T09:46:44.109Z,79.21
2019-05-09T09:50:51.615Z,79.49
2019-05-09T09:54:58.081Z,79.59
2019-05-09T09:59:21.594Z,80.07
2019-05-09T10:03:26.504Z,80.48
2019-05-09T10:07:31.380Z,80.56
2019-05-09T10:11:36.295Z,80.70
2019-05-09T10:15:48.663Z,80.99
2019-05-09T10:19:55.203Z,81.12
2019-05-09T10:24:00.083Z,81.69
2019-05-09T10:28:04.972Z,82.29
2019-05-09T10:32:11.577Z,82.61
2019-05-09T10:36:16.548Z,83.25
2019-05-09T10:40:22.729Z,83.20
2019-05-09T10:44:31.952Z,82.62
2019-05-09T10:48:38.622Z,82.55
2019-05-09T10:52:43.521Z,81.57
2019-05-09T10:56:49.490Z,80.82
2019-05-09T11:00:54.388Z,80.89
2019-05-09T11:04:59.287Z,81.43
2019-05-09T11:09:08.614Z,82.74
2019-05-09T11:13:13.217Z,79.14
2019-05-09T11:17:21.661Z,78.12
2019-05-09T11:21:24.704Z,78.78
2019-05-09T11:25:29.599Z,78.28
2019-05-09T11:29:34.501Z,77.94
2019-05-09T11:33:39.382Z,78.76
2019-05-09T11:37:44.283Z,79.84
2019-05-09T11:41:49.178Z,78.86
2019-05-09T11:45:54.076Z,79.23
2019-05-09T11:49:58.975Z,79.64
2019-05-09T11:54:03.855Z,80.48
2019-05-09T11:58:09.923Z,80.69
2019-05-09T12:02:14.817Z,80.85
2019-05-09T12:06:20.522Z,81.35
2019-05-09T12:10:25.597Z,81.49
2019-05-09T12:14:30.485Z,81.81
2019-05-09T12:18:37.674Z,80.45
2019-05-09T12:22:43.045Z,79.12
2019-05-09T12:26:48.349Z,79.42
2019-05-09T12:30:53.417Z,79.44
2019-05-09T12:34:58.310Z,80.45
2019-05-09T12:39:03.882Z,80.66
2019-05-09T12:43:09.221Z,80.66
2019-05-09T12:47:14.289Z,81.35
2019-05-09T12:51:19.118Z,81.46
2019-05-09T12:55:24.018Z,80.47
2019-05-09T12:59:28.910Z,80.51
2019-05-09T13:03:33.807Z,81.96
2019-05-09T13:07:42.221Z,83.03
2019-05-09T13:11:48.256Z,82.84
2019-05-09T13:16:03.603Z,83.03
2019-05-09T13:20:10.495Z,82.30
2019-05-09T13:24:19.262Z,81.04
2019-05-09T13:28:21.988Z,81.36
2019-05-09T13:32:28.025Z,81.30
2019-05-09T13:36:33.223Z,81.57
2019-05-09T13:40:38.124Z,82.11
2019-05-09T13:44:43.098Z,81.71
2019-05-09T13:49:05.827Z,81.27
2019-05-09T13:52:55.567Z,81.66
2019-05-09T13:57:01.552Z,81.54
2019-05-09T14:01:07.885Z,82.09
2019-05-09T14:05:12.856Z,81.82
2019-05-09T14:09:20.008Z,81.99
2019-05-09T14:13:24.354Z,81.34
2019-05-09T14:17:44.797Z,81.62
2019-05-09T14:21:35.846Z,81.41
2019-05-09T14:25:40.750Z,81.60
2019-05-09T14:29:45.673Z,80.56
2019-05-09T14:33:50.544Z,80.62
2019-05-09T14:37:55.434Z,82.19
2019-05-09T14:42:00.333Z,82.26
2019-05-09T14:46:05.229Z,82.32
2019-05-09T14:50:10.973Z,83.03
2019-05-09T14:54:15.869Z,83.50
2019-05-09T14:58:21.697Z,84.42
2019-05-09T15:02:26.587Z,84.54
2019-05-09T15:06:31.489Z,85.04
2019-05-09T15:10:38.425Z,85.89
2019-05-09T15:14:42.980Z,87.46
2019-05-09T15:18:48.649Z,87.37
2019-05-09T15:22:53.755Z,85.83
2019-05-09T15:26:58.653Z,82.23
2019-05-09T15:31:03.548Z,83.24
2019-05-09T15:35:09.281Z,80.16
2019-05-09T15:39:14.184Z,81.67
2019-05-09T15:43:19.076Z,80.26
2019-05-09T15:47:31.030Z,81.94
2019-05-09T15:51:35.926Z,84.03
2019-05-09T15:55:40.819Z,84.35
2019-05-09T15:59:47.861Z,83.73
2019-05-09T16:03:52.316Z,83.75
2019-05-09T16:07:58.555Z,84.45
2019-05-09T16:12:03.567Z,84.87
2019-05-09T16:16:09.022Z,81.06
2019-05-09T16:20:14.183Z,80.91
2019-05-09T16:24:19.160Z,80.54
2019-05-09T16:28:24.057Z,80.73
2019-05-09T16:32:28.947Z,81.74
2019-05-09T16:36:33.842Z,81.48
2019-05-09T16:40:38.883Z,80.62
2019-05-09T16:44:43.710Z,78.11
2019-05-09T16:48:48.616Z,78.98
2019-05-09T16:52:53.510Z,79.62
2019-05-09T16:57:00.009Z,80.77
2019-05-09T17:01:05.188Z,82.14
2019-05-09T17:05:10.336Z,82.71
2019-05-09T17:09:15.237Z,84.08
2019-05-09T17:13:20.125Z,84.08
2019-05-09T17:17:25.024Z,80.95
2019-05-09T17:21:40.810Z,80.95
2019-05-09T17:25:47.910Z,79.62
2019-05-09T17:29:52.295Z,77.70
2019-05-09T17:33:57.889Z,75.23
2019-05-09T17:38:03.016Z,73.96
2019-05-09T17:42:07.910Z,73.02
2019-05-09T17:46:12.818Z,73.01
2019-05-09T17:50:18.585Z,74.13
2019-05-09T17:54:23.626Z,75.40
2019-05-09T17:58:32.927Z,76.06
2019-05-09T18:02:35.115Z,76.59
2019-05-09T18:06:40.003Z,76.32
2019-05-09T18:10:44.896Z,76.17
2019-05-09T18:14:49.873Z,77.37
2019-05-09T18:18:58.527Z,77.46
2019-05-09T18:23:03.368Z,77.46
2019-05-09T18:27:08.998Z,78.88
2019-05-09T18:31:13.889Z,80.28
2019-05-09T18:35:20.589Z,80.85
2019-05-09T18:39:27.680Z,80.92
2019-05-09T18:43:32.068Z,81.50
2019-05-09T18:47:36.965Z,82.40
2019-05-09T18:51:41.871Z,83.55
2019-05-09T18:55:46.771Z,84.87
2019-05-09T18:59:51.679Z,85.83
2019-05-09T19:03:56.582Z,86.04
2019-05-09T19:08:01.476Z,86.92
2019-05-09T19:12:06.578Z,87.45
2019-05-09T19:16:27.920Z,88.04
2019-05-09T19:20:40.657Z,88.48
2019-05-09T19:24:45.542Z,88.39
2019-05-09T19:28:50.434Z,88.21
2019-05-09T19:32:55.336Z,88.59
2019-05-09T19:37:00.241Z,87.49
2019-05-09T19:41:05.134Z,88.28
2019-05-09T19:45:10.572Z,88.49
2019-05-09T19:49:15.533Z,89.52
2019-05-09T19:53:20.430Z,90.39
2019-05-09T19:57:25.333Z,91.97
2019-05-09T20:01:30.232Z,92.03
2019-05-09T20:05:35.127Z,92.22
2019-05-09T20:09:44.558Z,92.32
2019-05-09T20:13:57.097Z,92.97
2019-05-09T20:18:01.995Z,92.70
2019-05-09T20:22:06.891Z,92.40
2019-05-09T20:26:11.796Z,92.21
2019-05-09T20:30:17.884Z,94.93
2019-05-09T20:34:22.831Z,92.64
2019-05-09T20:38:27.875Z,87.00
2019-05-09T20:42:32.953Z,85.35
2019-05-09T20:46:38.037Z,85.19
2019-05-09T20:50:44.584Z,83.28
2019-05-09T20:54:49.895Z,82.33
2019-05-09T20:58:54.973Z,81.48
2019-05-09T21:03:00.046Z,81.26
2019-05-09T21:07:05.124Z,81.39
2019-05-09T21:11:10.217Z,81.69
2019-05-09T21:15:15.421Z,82.12
2019-05-09T21:19:20.516Z,82.44
2019-05-09T21:23:25.585Z,82.81
2019-05-09T21:27:30.664Z,83.18
2019-05-09T21:31:35.738Z,83.59
2019-05-09T21:35:41.708Z,84.24
2019-05-09T21:39:46.611Z,84.66
2019-05-09T21:43:51.508Z,85.00
2019-05-09T21:47:56.401Z,85.18
2019-05-09T21:52:01.290Z,85.47
2019-05-09T21:56:06.201Z,85.83
2019-05-09T22:00:16.956Z,85.79
2019-05-09T22:04:23.451Z,85.92
2019-05-09T22:08:28.414Z,86.37
2019-05-09T22:12:33.322Z,86.67
2019-05-09T22:16:38.207Z,87.16
2019-05-09T22:20:43.109Z,87.86
2019-05-09T22:24:48.006Z,88.10
2019-05-09T22:28:53.975Z,88.59
2019-05-09T22:32:58.865Z,88.98
2019-05-09T22:37:03.778Z,89.55
2019-05-09T22:41:08.663Z,89.52
2019-05-09T22:45:14.200Z,89.56
2019-05-09T22:49:19.097Z,89.59
2019-05-09T22:53:23.988Z,89.89
2019-05-09T22:57:28.876Z,90.13
2019-05-09T23:01:33.778Z,90.39
2019-05-09T23:05:38.669Z,90.91
2019-05-09T23:09:43.568Z,90.58
2019-05-09T23:13:54.481Z,90.22
2019-05-09T23:17:59.357Z,89.81
2019-05-09T23:22:04.826Z,89.59
2019-05-09T23:26:10.701Z,89.67
2019-05-09T23:30:15.832Z,89.71
2019-05-09T23:34:20.727Z,89.85
2019-05-09T23:38:25.608Z,89.98
2019-05-09T23:42:30.507Z,90.15
2019-05-09T23:46:35.412Z,90.49
2019-05-09T23:50:40.311Z,90.71
2019-05-09T23:55:03.436Z,90.67
2019-05-09T23:59:27.334Z,90.54
